createdAt,value
2018-10-07T00:00:53.666Z,1000.02
2018-10-07T00:01:53.633Z,1000.03
2018-10-07T00:02:53.611Z,1000.06
2018-10-07T00:03:53.580Z,1000.06
2018-10-07T00:04:53.549Z,1000.01
2018-10-07T00:05:53.520Z,1000.06
2018-10-07T00:06:53.492Z,1000.05
2018-10-07T00:07:53.464Z,1000.04
2018-10-07T00:08:53.441Z,1000.00
2018-10-07T00:09:53.404Z,1000.03
2018-10-07T00:10:53.375Z,1000.06
2018-10-07T00:11:53.348Z,1000.06
2018-10-07T00:12:53.318Z,1000.07
2018-10-07T00:13:53.288Z,1000.00
2018-10-07T00:14:53.261Z,1000.05
2018-10-07T00:15:53.230Z,1000.07
2018-10-07T00:16:53.201Z,1000.08
2018-10-07T00:17:53.173Z,1000.06
2018-10-07T00:18:53.144Z,1000.04
2018-10-07T00:19:53.115Z,1000.05
2018-10-07T00:20:53.085Z,1000.03
2018-10-07T00:21:53.056Z,1000.02
2018-10-07T00:22:53.027Z,999.97
2018-10-07T00:23:52.999Z,999.95
2018-10-07T00:24:52.969Z,999.97
2018-10-07T00:25:52.941Z,999.93
2018-10-07T00:26:52.910Z,999.90
2018-10-07T00:27:52.883Z,999.88
2018-10-07T00:28:52.854Z,999.84
2018-10-07T00:29:52.824Z,999.89
2018-10-07T00:30:52.795Z,999.90
2018-10-07T00:31:52.765Z,999.86
2018-10-07T00:32:52.736Z,999.87
2018-10-07T00:33:52.708Z,999.86
2018-10-07T00:34:52.681Z,999.89
2018-10-07T00:35:52.648Z,999.88
2018-10-07T00:36:52.618Z,999.91
2018-10-07T00:37:52.592Z,999.93
2018-10-07T00:38:52.577Z,999.93
2018-10-07T00:39:52.535Z,999.92
2018-10-07T00:40:52.517Z,999.89
2018-10-07T00:41:52.474Z,999.89
2018-10-07T00:42:52.445Z,999.85
2018-10-07T00:43:52.418Z,999.85
2018-10-07T00:44:52.386Z,999.85
2018-10-07T00:45:53.312Z,999.82
2018-10-07T00:46:52.328Z,999.81
2018-10-07T00:47:52.300Z,999.81
2018-10-07T00:48:52.270Z,999.86
2018-10-07T00:49:52.240Z,999.82
2018-10-07T00:50:52.211Z,999.88
2018-10-07T00:51:52.182Z,999.87
2018-10-07T00:52:52.155Z,999.86
2018-10-07T00:53:52.122Z,999.90
2018-10-07T00:54:52.096Z,999.89
2018-10-07T00:55:52.066Z,999.90
2018-10-07T00:56:52.035Z,999.88
2018-10-07T00:57:52.015Z,999.94
2018-10-07T00:58:51.979Z,999.91
2018-10-07T00:59:52.810Z,999.95
2018-10-07T01:00:51.920Z,999.92
2018-10-07T01:01:51.889Z,999.98
2018-10-07T01:02:51.860Z,999.95
2018-10-07T01:03:51.832Z,999.97
2018-10-07T01:04:51.802Z,999.95
2018-10-07T01:05:51.776Z,999.96
2018-10-07T01:06:51.744Z,999.95
2018-10-07T01:07:51.714Z,1000.01
2018-10-07T01:08:51.688Z,999.94
2018-10-07T01:09:51.655Z,999.93
2018-10-07T01:10:51.627Z,999.92
2018-10-07T01:11:51.596Z,999.89
2018-10-07T01:12:51.566Z,999.91
2018-10-07T01:13:51.537Z,999.93
2018-10-07T01:14:51.507Z,999.91
2018-10-07T01:15:51.476Z,999.95
2018-10-07T01:16:51.451Z,999.97
2018-10-07T01:17:51.419Z,999.95
2018-10-07T01:18:51.392Z,999.93
2018-10-07T01:19:51.362Z,999.96
2018-10-07T01:20:51.330Z,999.93
2018-10-07T01:21:51.301Z,999.95
2018-10-07T01:22:51.274Z,999.93
2018-10-07T01:23:51.241Z,999.94
2018-10-07T01:24:51.811Z,999.91
2018-10-07T01:25:51.188Z,999.91
2018-10-07T01:26:51.155Z,999.91
2018-10-07T01:27:51.811Z,999.85
2018-10-07T01:28:51.096Z,999.87
2018-10-07T01:29:51.068Z,999.92
2018-10-07T01:30:51.036Z,999.90
2018-10-07T01:31:51.012Z,999.92
2018-10-07T01:32:50.981Z,999.92
2018-10-07T01:33:50.948Z,999.93
2018-10-07T01:34:50.920Z,999.94
2018-10-07T01:35:50.891Z,999.97
2018-10-07T01:36:50.862Z,999.99
2018-10-07T01:37:50.830Z,999.94
2018-10-07T01:38:50.802Z,999.98
2018-10-07T01:39:50.773Z,999.98
2018-10-07T01:40:50.750Z,999.99
2018-10-07T01:41:50.716Z,1000.04
2018-10-07T01:42:50.696Z,1000.05
2018-10-07T01:43:50.657Z,1000.13
2018-10-07T01:44:50.627Z,1000.11
2018-10-07T01:45:50.598Z,1000.13
2018-10-07T01:46:50.569Z,1000.15
2018-10-07T01:47:50.540Z,1000.16
2018-10-07T01:48:50.511Z,1000.14
2018-10-07T01:49:50.493Z,1000.15
2018-10-07T01:50:50.452Z,1000.14
2018-10-07T01:51:50.426Z,1000.17
2018-10-07T01:52:50.391Z,1000.13
2018-10-07T01:53:50.365Z,1000.14
2018-10-07T01:54:50.335Z,1000.21
2018-10-07T01:55:50.305Z,1000.24
2018-10-07T01:56:50.273Z,1000.23
2018-10-07T01:57:50.247Z,1000.27
2018-10-07T01:58:50.224Z,1000.27
2018-10-07T01:59:50.190Z,1000.26
2018-10-07T02:00:50.159Z,1000.22
2018-10-07T02:01:50.131Z,1000.26
2018-10-07T02:02:50.106Z,1000.30
2018-10-07T02:03:50.072Z,1000.25
2018-10-07T02:04:50.045Z,1000.27
2018-10-07T02:05:50.014Z,1000.28
2018-10-07T02:06:49.986Z,1000.26
2018-10-07T02:07:49.957Z,1000.21
2018-10-07T02:08:49.926Z,1000.24
2018-10-07T02:09:49.898Z,1000.26
2018-10-07T02:10:49.876Z,1000.30
2018-10-07T02:11:49.842Z,1000.33
2018-10-07T02:12:49.813Z,1000.35
2018-10-07T02:13:49.786Z,1000.39
2018-10-07T02:14:49.758Z,1000.35
2018-10-07T02:15:49.724Z,1000.42
2018-10-07T02:16:49.695Z,1000.46
2018-10-07T02:17:49.666Z,1000.46
2018-10-07T02:18:49.643Z,1000.54
2018-10-07T02:19:49.609Z,1000.66
2018-10-07T02:20:49.581Z,1000.72
2018-10-07T02:21:49.551Z,1000.82
2018-10-07T02:22:49.522Z,1000.99
2018-10-07T02:23:50.320Z,1001.14
2018-10-07T02:24:49.464Z,1001.24
2018-10-07T02:25:49.441Z,1001.25
2018-10-07T02:26:49.407Z,1001.17
2018-10-07T02:27:49.379Z,1001.14
2018-10-07T02:28:49.349Z,1001.03
2018-10-07T02:29:49.324Z,1001.05
2018-10-07T02:30:49.300Z,1000.99
2018-10-07T02:31:49.264Z,1000.96
2018-10-07T02:32:49.234Z,1000.93
2018-10-07T02:33:49.207Z,1001.02
2018-10-07T02:34:49.176Z,1001.09
2018-10-07T02:35:49.153Z,1001.18
2018-10-07T02:36:49.120Z,1001.09
2018-10-07T02:37:49.096Z,1001.09
2018-10-07T02:38:49.062Z,1000.92
2018-10-07T02:39:49.035Z,1000.94
2018-10-07T02:40:49.006Z,1001.03
2018-10-07T02:41:48.976Z,1001.08
2018-10-07T02:42:48.950Z,1001.05
2018-10-07T02:43:48.925Z,1001.08
2018-10-07T02:44:48.889Z,1001.07
2018-10-07T02:45:48.863Z,1001.07
2018-10-07T02:46:49.829Z,1001.09
2018-10-07T02:47:48.806Z,1001.22
2018-10-07T02:48:48.781Z,1001.13
2018-10-07T02:49:48.750Z,1001.11
2018-10-07T02:50:50.324Z,1001.14
2018-10-07T02:51:48.692Z,1001.16
2018-10-07T02:52:48.663Z,1001.19
2018-10-07T02:53:48.634Z,1001.15
2018-10-07T02:54:48.618Z,1001.14
2018-10-07T02:55:48.580Z,1001.06
2018-10-07T02:56:48.551Z,1001.06
2018-10-07T02:57:48.520Z,1001.09
2018-10-07T02:58:48.494Z,1001.17
2018-10-07T02:59:48.466Z,1001.18
2018-10-07T03:00:48.436Z,1001.11
2018-10-07T03:01:48.407Z,1001.16
2018-10-07T03:02:48.385Z,1001.15
2018-10-07T03:03:48.352Z,1001.14
2018-10-07T03:04:48.482Z,1001.22
2018-10-07T03:05:48.295Z,1001.24
2018-10-07T03:06:48.269Z,1001.25
2018-10-07T03:07:48.237Z,1001.29
2018-10-07T03:08:48.215Z,1001.37
2018-10-07T03:09:48.181Z,1001.47
2018-10-07T03:10:48.151Z,1001.60
2018-10-07T03:11:48.124Z,1001.60
2018-10-07T03:12:48.093Z,1001.58
2018-10-07T03:13:48.066Z,1001.54
2018-10-07T03:14:48.038Z,1001.55
2018-10-07T03:15:48.007Z,1001.72
2018-10-07T03:16:47.980Z,1001.75
2018-10-07T03:17:47.953Z,1001.83
2018-10-07T03:18:47.923Z,1002.01
2018-10-07T03:19:47.894Z,1002.02
2018-10-07T03:20:47.864Z,1002.05
2018-10-07T03:21:47.837Z,1002.01
2018-10-07T03:22:47.809Z,1002.05
2018-10-07T03:23:47.781Z,1001.90
2018-10-07T03:24:47.752Z,1001.83
2018-10-07T03:25:47.723Z,1001.72
2018-10-07T03:26:47.697Z,1001.61
2018-10-07T03:27:47.667Z,1001.64
2018-10-07T03:28:47.638Z,1001.65
2018-10-07T03:29:47.609Z,1001.59
2018-10-07T03:30:47.580Z,1001.68
2018-10-07T03:31:47.552Z,1001.76
2018-10-07T03:32:47.522Z,1001.66
2018-10-07T03:33:47.499Z,1001.67
2018-10-07T03:34:47.466Z,1001.61
2018-10-07T03:35:47.438Z,1001.59
2018-10-07T03:36:47.407Z,1001.54
2018-10-07T03:37:47.378Z,1001.61
2018-10-07T03:38:47.350Z,1001.69
2018-10-07T03:39:47.321Z,1001.65
2018-10-07T03:40:47.291Z,1001.61
2018-10-07T03:41:47.262Z,1001.63
2018-10-07T03:42:47.235Z,1001.62
2018-10-07T03:43:47.206Z,1001.54
2018-10-07T03:44:47.178Z,1001.55
2018-10-07T03:45:47.837Z,1001.59
2018-10-07T03:46:47.115Z,1001.55
2018-10-07T03:47:47.090Z,1001.47
2018-10-07T03:48:47.058Z,1001.56
2018-10-07T03:49:47.031Z,1001.54
2018-10-07T03:50:47.003Z,1001.49
2018-10-07T03:51:46.978Z,1001.59
2018-10-07T03:52:46.944Z,1001.68
2018-10-07T03:53:46.916Z,1001.76
2018-10-07T03:54:46.888Z,1001.81
2018-10-07T03:55:46.858Z,1001.80
2018-10-07T03:56:46.831Z,1001.80
2018-10-07T03:57:46.798Z,1001.76
2018-10-07T03:58:46.771Z,1001.78
2018-10-07T03:59:46.742Z,1001.76
2018-10-07T04:00:46.711Z,1001.80
2018-10-07T04:01:46.681Z,1001.87
2018-10-07T04:02:46.655Z,1001.85
2018-10-07T04:03:46.625Z,1001.85
2018-10-07T04:04:46.595Z,1001.93
2018-10-07T04:05:46.565Z,1001.93
2018-10-07T04:06:46.536Z,1002.03
2018-10-07T04:07:46.508Z,1002.19
2018-10-07T04:08:46.485Z,1002.13
2018-10-07T04:09:46.450Z,1002.11
2018-10-07T04:10:46.421Z,1002.13
2018-10-07T04:11:46.392Z,1002.21
2018-10-07T04:12:46.362Z,1002.31
2018-10-07T04:13:46.336Z,1002.29
2018-10-07T04:14:46.303Z,1002.34
2018-10-07T04:15:46.274Z,1002.36
2018-10-07T04:16:46.248Z,1002.28
2018-10-07T04:17:46.215Z,1002.32
2018-10-07T04:18:46.190Z,1002.36
2018-10-07T04:19:46.159Z,1002.27
2018-10-07T04:20:46.128Z,1002.39
2018-10-07T04:21:46.100Z,1002.51
2018-10-07T04:22:46.070Z,1002.52
2018-10-07T04:23:46.043Z,1002.59
2018-10-07T04:24:46.017Z,1002.56
2018-10-07T04:25:45.983Z,1002.67
2018-10-07T04:26:45.953Z,1002.76
2018-10-07T04:27:45.925Z,1002.73
2018-10-07T04:28:45.897Z,1002.82
2018-10-07T04:29:45.862Z,1002.91
2018-10-07T04:30:45.837Z,1002.85
2018-10-07T04:31:45.808Z,1002.97
2018-10-07T04:32:45.777Z,1002.98
2018-10-07T04:33:45.748Z,1003.48
2018-10-07T04:34:45.719Z,1002.99
2018-10-07T04:35:45.690Z,1003.00
2018-10-07T04:36:45.659Z,1003.01
2018-10-07T04:37:45.632Z,1002.98
2018-10-07T04:38:45.601Z,1003.00
2018-10-07T04:39:45.627Z,1003.17
2018-10-07T04:40:45.540Z,1002.98
2018-10-07T04:41:45.514Z,1002.99
2018-10-07T04:42:45.485Z,1003.12
2018-10-07T04:43:45.453Z,1003.19
2018-10-07T04:44:45.423Z,1003.18
2018-10-07T04:45:45.395Z,1003.26
2018-10-07T04:46:45.365Z,1003.29
2018-10-07T04:47:45.846Z,1003.34
2018-10-07T04:48:45.303Z,1003.41
2018-10-07T04:49:45.276Z,1003.47
2018-10-07T04:50:45.247Z,1003.51
2018-10-07T04:51:45.259Z,1003.52
2018-10-07T04:52:45.186Z,1003.44
2018-10-07T04:53:45.157Z,1003.38
2018-10-07T04:54:45.128Z,1003.44
2018-10-07T04:55:45.102Z,1003.45
2018-10-07T04:56:45.067Z,1003.48
2018-10-07T04:57:45.039Z,1003.49
2018-10-07T04:58:45.010Z,1003.58
2018-10-07T04:59:45.042Z,1003.59
2018-10-07T05:00:52.366Z,1003.64
2018-10-07T05:02:38.567Z,1003.63
2018-10-07T05:03:38.504Z,1003.69
2018-10-07T05:05:31.804Z,1003.69
2018-10-07T05:06:31.769Z,1003.76
2018-10-07T05:08:24.598Z,1003.75
2018-10-07T05:09:24.540Z,1003.71
2018-10-07T05:11:17.367Z,1003.78
2018-10-07T05:12:17.451Z,1003.84
2018-10-07T05:14:10.117Z,1004.00
2018-10-07T05:15:10.083Z,1004.01
2018-10-07T05:17:02.909Z,1004.13
2018-10-07T05:18:02.852Z,1004.04
2018-10-07T05:19:55.660Z,1004.22
2018-10-07T05:20:55.677Z,1004.30
2018-10-07T05:22:49.249Z,1004.21
2018-10-07T05:23:49.193Z,1004.22
2018-10-07T05:25:41.993Z,1004.18
2018-10-07T05:26:41.960Z,1004.24
2018-10-07T05:28:35.089Z,1004.21
2018-10-07T05:29:35.022Z,1004.33
2018-10-07T05:31:28.123Z,1004.21
2018-10-07T05:32:28.087Z,1004.25
2018-10-07T05:34:20.906Z,1004.29
2018-10-07T05:35:20.857Z,1004.40
2018-10-07T05:37:13.956Z,1004.35
2018-10-07T05:38:13.924Z,1004.39
2018-10-07T05:40:07.247Z,1004.43
2018-10-07T05:41:07.187Z,1004.45
2018-10-07T05:43:00.785Z,1004.48
2018-10-07T05:44:00.751Z,1004.62
2018-10-07T05:45:54.072Z,1004.60
2018-10-07T05:46:54.016Z,1004.53
2018-10-07T05:48:47.317Z,1004.65
2018-10-07T05:49:47.282Z,1004.70
2018-10-07T05:51:40.423Z,1004.69
2018-10-07T05:52:40.359Z,1004.80
2018-10-07T05:54:33.157Z,1004.88
2018-10-07T05:55:33.159Z,1004.82
2018-10-07T05:57:26.141Z,1004.84
2018-10-07T05:58:26.092Z,1004.91
2018-10-07T06:00:18.914Z,1004.97
2018-10-07T06:01:18.859Z,1004.96
2018-10-07T06:03:11.687Z,1005.12
2018-10-07T06:04:11.625Z,1005.18
2018-10-07T06:06:04.747Z,1005.23
2018-10-07T06:07:04.690Z,1005.21
2018-10-07T06:08:57.786Z,1005.34
2018-10-07T06:09:57.752Z,1005.37
2018-10-07T06:11:50.572Z,1005.40
2018-10-07T06:12:50.519Z,1005.44
2018-10-07T06:14:43.462Z,1005.40
2018-10-07T06:15:43.293Z,1005.47
2018-10-07T06:17:36.387Z,1005.58
2018-10-07T06:18:37.191Z,1005.59
2018-10-07T06:20:29.674Z,1005.69
2018-10-07T06:21:29.625Z,1005.77
2018-10-07T06:23:23.238Z,1005.85
2018-10-07T06:25:54.721Z,1005.91
2018-10-07T06:26:54.684Z,1006.02
2018-10-07T06:28:47.503Z,1006.01
2018-10-07T06:29:47.517Z,1006.05
2018-10-07T06:31:40.591Z,1006.08
2018-10-07T06:32:40.518Z,1005.97
2018-10-07T06:34:33.626Z,1006.06
2018-10-07T06:35:33.593Z,1006.09
2018-10-07T06:37:27.205Z,1006.16
2018-10-07T06:38:27.179Z,1006.25
2018-10-07T06:40:20.476Z,1006.31
2018-10-07T06:41:20.440Z,1006.31
2018-10-07T06:43:13.512Z,1006.30
2018-10-07T06:44:14.315Z,1006.33
2018-10-07T06:46:06.302Z,1006.31
2018-10-07T06:47:06.248Z,1006.23
2018-10-07T06:48:59.051Z,1006.29
2018-10-07T06:49:59.017Z,1006.23
2018-10-07T06:51:52.148Z,1006.32
2018-10-07T06:52:52.088Z,1006.36
2018-10-07T06:54:45.391Z,1006.28
2018-10-07T06:55:45.356Z,1006.29
2018-10-07T06:57:38.678Z,1006.39
2018-10-07T06:58:38.628Z,1006.50
2018-10-07T07:00:32.220Z,1006.55
2018-10-07T07:01:32.186Z,1006.51
2018-10-07T07:03:25.310Z,1006.56
2018-10-07T07:04:25.256Z,1006.62
2018-10-07T07:06:18.392Z,1006.61
2018-10-07T07:07:18.318Z,1006.70
2018-10-07T07:09:11.148Z,1006.79
2018-10-07T07:10:11.088Z,1006.78
2018-10-07T07:12:03.912Z,1006.86
2018-10-07T07:13:03.873Z,1006.87
2018-10-07T07:14:56.960Z,1006.94
2018-10-07T07:15:56.925Z,1006.99
2018-10-07T07:17:49.754Z,1007.05
2018-10-07T07:18:49.693Z,1007.07
2018-10-07T07:20:43.039Z,1007.05
2018-10-07T07:21:42.960Z,1007.16
2018-10-07T07:23:36.057Z,1007.23
2018-10-07T07:24:36.025Z,1007.26
2018-10-07T07:26:29.341Z,1007.35
2018-10-07T07:27:29.284Z,1007.34
2018-10-07T07:29:22.117Z,1007.33
2018-10-07T07:30:22.056Z,1007.38
2018-10-07T07:32:14.859Z,1007.37
2018-10-07T07:33:14.826Z,1007.53
2018-10-07T07:35:08.150Z,1007.49
2018-10-07T07:36:08.092Z,1007.50
2018-10-07T07:38:00.896Z,1007.50
2018-10-07T07:39:00.860Z,1007.51
2018-10-07T07:40:53.685Z,1007.45
2018-10-07T07:41:53.629Z,1007.45
2018-10-07T07:43:46.435Z,1007.46
2018-10-07T07:44:46.399Z,1007.47
2018-10-07T07:46:39.222Z,1007.49
2018-10-07T07:47:39.170Z,1007.51
2018-10-07T07:49:32.286Z,1007.52
2018-10-07T07:50:32.235Z,1007.52
2018-10-07T07:52:25.351Z,1007.53
2018-10-07T07:53:25.295Z,1007.57
2018-10-07T07:55:18.105Z,1007.62
2018-10-07T07:56:18.067Z,1007.67
2018-10-07T07:58:11.389Z,1007.68
2018-10-07T07:59:11.335Z,1007.77
2018-10-07T08:01:04.164Z,1007.77
2018-10-07T08:02:04.106Z,1007.77
2018-10-07T08:03:56.928Z,1007.78
2018-10-07T08:04:56.876Z,1007.80
2018-10-07T08:06:49.683Z,1007.89
2018-10-07T08:07:49.651Z,1007.93
2018-10-07T08:09:42.479Z,1007.89
2018-10-07T08:10:42.427Z,1008.04
2018-10-07T08:12:35.222Z,1008.11
2018-10-07T08:13:35.191Z,1008.11
2018-10-07T08:15:28.306Z,1008.23
2018-10-07T08:16:29.092Z,1008.28
2018-10-07T08:17:28.240Z,1008.29
2018-10-07T08:18:28.194Z,1008.37
2018-10-07T08:19:28.162Z,1008.40
2018-10-07T08:20:28.132Z,1008.40
2018-10-07T08:21:28.102Z,1008.42
2018-10-07T08:22:28.071Z,1008.54
2018-10-07T08:23:28.134Z,1008.55
2018-10-07T08:24:28.010Z,1008.52
2018-10-07T08:25:27.981Z,1008.56
2018-10-07T08:26:27.951Z,1008.63
2018-10-07T08:27:27.923Z,1008.54
2018-10-07T08:28:27.890Z,1008.60
2018-10-07T08:29:27.896Z,1008.56
2018-10-07T08:30:27.832Z,1008.62
2018-10-07T08:31:27.802Z,1008.64
2018-10-07T08:32:27.770Z,1008.63
2018-10-07T08:33:27.744Z,1008.65
2018-10-07T08:34:27.725Z,1008.61
2018-10-07T08:35:27.686Z,1008.64
2018-10-07T08:36:27.655Z,1008.61
2018-10-07T08:37:27.624Z,1008.63
2018-10-07T08:38:27.592Z,1008.62
2018-10-07T08:39:27.558Z,1008.73
2018-10-07T08:40:29.092Z,1008.65
2018-10-07T08:41:28.097Z,1008.72
2018-10-07T08:42:27.475Z,1008.71
2018-10-07T08:43:27.447Z,1008.69
2018-10-07T08:44:27.416Z,1008.78
2018-10-07T08:45:27.388Z,1008.69
2018-10-07T08:46:27.356Z,1008.74
2018-10-07T08:47:27.326Z,1008.71
2018-10-07T08:48:27.298Z,1008.74
2018-10-07T08:49:27.267Z,1008.79
2018-10-07T08:50:27.238Z,1008.78
2018-10-07T08:51:27.213Z,1008.80
2018-10-07T08:52:27.178Z,1008.86
2018-10-07T08:53:27.154Z,1008.91
2018-10-07T08:54:27.121Z,1008.88
2018-10-07T08:55:27.092Z,1008.85
2018-10-07T08:56:27.116Z,1008.85
2018-10-07T08:57:27.032Z,1008.88
2018-10-07T08:58:27.015Z,1008.92
2018-10-07T08:59:26.975Z,1008.93
2018-10-07T09:00:26.944Z,1009.00
2018-10-07T09:01:26.915Z,1008.98
2018-10-07T09:02:26.890Z,1008.95
2018-10-07T09:03:26.855Z,1008.93
2018-10-07T09:04:26.824Z,1009.00
2018-10-07T09:05:26.796Z,1008.96
2018-10-07T09:06:27.622Z,1008.91
2018-10-07T09:07:26.735Z,1008.89
2018-10-07T09:08:26.706Z,1008.91
2018-10-07T09:09:27.600Z,1008.90
2018-10-07T09:10:26.647Z,1008.95
2018-10-07T09:11:26.619Z,1008.71
2018-10-07T09:12:26.588Z,1008.84
2018-10-07T09:13:26.561Z,1008.84
2018-10-07T09:14:26.534Z,1008.78
2018-10-07T09:15:26.503Z,1008.72
2018-10-07T09:16:26.471Z,1008.89
2018-10-07T09:17:26.440Z,1008.88
2018-10-07T09:18:26.412Z,1008.97
2018-10-07T09:19:26.383Z,1009.09
2018-10-07T09:20:26.355Z,1009.14
2018-10-07T09:21:26.330Z,1009.19
2018-10-07T09:22:26.293Z,1009.18
2018-10-07T09:23:26.268Z,1009.20
2018-10-07T09:24:26.236Z,1009.28
2018-10-07T09:25:27.103Z,1009.29
2018-10-07T09:26:28.095Z,1009.33
2018-10-07T09:27:26.161Z,1009.42
2018-10-07T09:28:26.120Z,1009.38
2018-10-07T09:29:26.100Z,1009.42
2018-10-07T09:30:26.055Z,1009.54
2018-10-07T09:31:26.031Z,1009.49
2018-10-07T09:32:26.041Z,1009.56
2018-10-07T09:33:25.971Z,1009.62
2018-10-07T09:34:25.947Z,1009.53
2018-10-07T09:35:25.914Z,1009.56
2018-10-07T09:36:25.884Z,1009.45
2018-10-07T09:37:25.860Z,1009.47
2018-10-07T09:38:25.828Z,1009.52
2018-10-07T09:39:25.836Z,1009.55
2018-10-07T09:40:25.768Z,1009.68
2018-10-07T09:41:25.740Z,1009.62
2018-10-07T09:42:25.712Z,1009.56
2018-10-07T09:43:25.686Z,1009.61
2018-10-07T09:44:25.670Z,1009.54
2018-10-07T09:45:25.624Z,1009.59
2018-10-07T09:46:25.594Z,1009.57
2018-10-07T09:47:25.567Z,1009.65
2018-10-07T09:48:25.538Z,1009.78
2018-10-07T09:49:26.106Z,1009.72
2018-10-07T09:50:25.481Z,1009.76
2018-10-07T09:51:25.451Z,1009.79
2018-10-07T09:52:25.512Z,1009.85
2018-10-07T09:53:25.393Z,1009.87
2018-10-07T09:54:25.365Z,1009.90
2018-10-07T09:55:25.335Z,1009.87
2018-10-07T09:56:25.306Z,1009.97
2018-10-07T09:57:25.280Z,1009.86
2018-10-07T09:58:25.251Z,1009.90
2018-10-07T09:59:25.228Z,1009.89
2018-10-07T10:00:25.192Z,1009.90
2018-10-07T10:01:25.285Z,1009.88
2018-10-07T10:02:25.132Z,1009.81
2018-10-07T10:03:25.105Z,1009.88
2018-10-07T10:04:25.212Z,1009.84
2018-10-07T10:05:25.045Z,1009.91
2018-10-07T10:06:25.016Z,1009.98
2018-10-07T10:07:24.988Z,1009.92
2018-10-07T10:08:24.957Z,1010.08
2018-10-07T10:09:24.929Z,1009.98
2018-10-07T10:10:24.903Z,1009.98
2018-10-07T10:11:24.981Z,1009.97
2018-10-07T10:12:24.842Z,1010.04
2018-10-07T10:13:24.816Z,1010.05
2018-10-07T10:14:24.809Z,1010.03
2018-10-07T10:15:24.762Z,1010.06
2018-10-07T10:16:24.727Z,1010.04
2018-10-07T10:17:24.699Z,1010.06
2018-10-07T10:18:24.677Z,1010.13
2018-10-07T10:19:24.714Z,1010.16
2018-10-07T10:20:25.111Z,1010.14
2018-10-07T10:21:24.581Z,1010.18
2018-10-07T10:22:24.565Z,1010.30
2018-10-07T10:23:24.525Z,1010.27
2018-10-07T10:24:24.498Z,1010.32
2018-10-07T10:25:24.469Z,1010.30
2018-10-07T10:26:24.441Z,1010.26
2018-10-07T10:27:24.412Z,1010.31
2018-10-07T10:28:24.383Z,1010.35
2018-10-07T10:29:24.355Z,1010.26
2018-10-07T10:30:24.349Z,1010.26
2018-10-07T10:31:24.299Z,1010.28
2018-10-07T10:32:24.264Z,1010.27
2018-10-07T10:33:24.247Z,1010.31
2018-10-07T10:34:24.215Z,1010.30
2018-10-07T10:35:24.183Z,1010.29
2018-10-07T10:36:24.155Z,1010.27
2018-10-07T10:37:24.126Z,1010.31
2018-10-07T10:38:24.099Z,1010.23
2018-10-07T10:39:24.101Z,1010.33
2018-10-07T10:40:24.042Z,1010.29
2018-10-07T10:41:24.013Z,1010.21
2018-10-07T10:42:23.986Z,1010.31
2018-10-07T10:43:23.960Z,1010.33
2018-10-07T10:44:23.933Z,1010.31
2018-10-07T10:45:23.899Z,1010.29
2018-10-07T10:46:23.872Z,1010.35
2018-10-07T10:47:23.847Z,1010.33
2018-10-07T10:48:23.814Z,1010.30
2018-10-07T10:49:23.787Z,1010.32
2018-10-07T10:50:23.758Z,1010.34
2018-10-07T10:51:23.733Z,1010.36
2018-10-07T10:52:23.701Z,1010.38
2018-10-07T10:53:23.674Z,1010.39
2018-10-07T10:54:23.645Z,1010.38
2018-10-07T10:55:24.121Z,1010.49
2018-10-07T10:56:23.587Z,1010.48
2018-10-07T10:57:23.560Z,1010.52
2018-10-07T10:58:23.531Z,1010.53
2018-10-07T10:59:23.502Z,1010.52
2018-10-07T11:00:23.473Z,1010.55
2018-10-07T11:01:23.444Z,1010.58
2018-10-07T11:02:23.418Z,1010.56
2018-10-07T11:03:23.388Z,1010.52
2018-10-07T11:04:23.361Z,1010.55
2018-10-07T11:05:23.328Z,1010.53
2018-10-07T11:06:23.303Z,1010.53
2018-10-07T11:07:23.325Z,1010.46
2018-10-07T11:08:23.244Z,1010.54
2018-10-07T11:09:23.215Z,1010.55
2018-10-07T11:10:23.187Z,1010.54
2018-10-07T11:11:23.159Z,1010.55
2018-10-07T11:12:23.130Z,1010.55
2018-10-07T11:13:23.103Z,1010.56
2018-10-07T11:14:23.073Z,1010.58
2018-10-07T11:15:23.119Z,1010.59
2018-10-07T11:16:23.018Z,1010.57
2018-10-07T11:17:22.987Z,1010.57
2018-10-07T11:18:22.964Z,1010.58
2018-10-07T11:19:22.953Z,1010.59
2018-10-07T11:20:22.898Z,1010.55
2018-10-07T11:21:22.874Z,1010.56
2018-10-07T11:22:22.843Z,1010.59
2018-10-07T11:23:22.815Z,1010.55
2018-10-07T11:24:22.786Z,1010.49
2018-10-07T11:25:22.759Z,1010.64
2018-10-07T11:26:22.730Z,1010.56
2018-10-07T11:27:22.701Z,1010.53
2018-10-07T11:28:22.673Z,1010.59
2018-10-07T11:29:22.644Z,1010.59
2018-10-07T11:30:22.616Z,1010.67
2018-10-07T11:31:22.587Z,1010.72
2018-10-07T11:32:22.560Z,1010.63
2018-10-07T11:33:22.533Z,1010.65
2018-10-07T11:34:22.503Z,1010.58
2018-10-07T11:35:22.475Z,1010.57
2018-10-07T11:36:22.444Z,1010.65
2018-10-07T11:37:22.418Z,1010.63
2018-10-07T11:38:22.392Z,1010.72
2018-10-07T11:39:22.361Z,1010.68
2018-10-07T11:40:22.333Z,1010.67
2018-10-07T11:41:22.333Z,1010.65
2018-10-07T11:42:22.276Z,1010.64
2018-10-07T11:43:22.248Z,1010.69
2018-10-07T11:44:22.224Z,1010.74
2018-10-07T11:45:22.231Z,1010.74
2018-10-07T11:46:22.165Z,1010.80
2018-10-07T11:47:22.137Z,1010.75
2018-10-07T11:48:22.108Z,1010.75
2018-10-07T11:49:22.081Z,1010.65
2018-10-07T11:50:22.052Z,1010.68
2018-10-07T11:51:22.026Z,1010.74
2018-10-07T11:52:21.997Z,1010.79
2018-10-07T11:53:21.973Z,1010.83
2018-10-07T11:54:21.940Z,1010.83
2018-10-07T11:55:22.626Z,1010.77
2018-10-07T11:56:21.885Z,1010.81
2018-10-07T11:57:21.857Z,1010.84
2018-10-07T11:58:21.824Z,1010.77
2018-10-07T11:59:21.804Z,1010.82
2018-10-07T12:00:21.772Z,1010.80
2018-10-07T12:01:21.745Z,1010.82
2018-10-07T12:02:21.821Z,1010.79
2018-10-07T12:03:22.630Z,1010.81
2018-10-07T12:04:21.662Z,1010.80
2018-10-07T12:05:21.634Z,1010.84
2018-10-07T12:06:22.129Z,1010.88
2018-10-07T12:07:21.578Z,1010.96
2018-10-07T12:08:21.551Z,1010.88
2018-10-07T12:09:21.527Z,1010.89
2018-10-07T12:10:21.564Z,1010.93
2018-10-07T12:11:21.474Z,1010.87
2018-10-07T12:12:21.442Z,1010.95
2018-10-07T12:13:21.415Z,1010.97
2018-10-07T12:14:21.390Z,1011.03
2018-10-07T12:15:21.361Z,1011.04
2018-10-07T12:16:22.165Z,1011.04
2018-10-07T12:17:21.306Z,1011.02
2018-10-07T12:18:21.279Z,1011.11
2018-10-07T12:19:21.251Z,1011.07
2018-10-07T12:20:21.224Z,1011.07
2018-10-07T12:21:21.198Z,1011.08
2018-10-07T12:22:21.170Z,1011.09
2018-10-07T12:23:21.143Z,1011.07
2018-10-07T12:24:21.116Z,1011.14
2018-10-07T12:25:21.088Z,1011.20
2018-10-07T12:26:21.060Z,1011.24
2018-10-07T12:27:21.035Z,1011.29
2018-10-07T12:28:21.008Z,1011.23
2018-10-07T12:29:20.980Z,1011.24
2018-10-07T12:30:20.959Z,1011.26
2018-10-07T12:31:20.933Z,1011.22
2018-10-07T12:32:20.896Z,1011.27
2018-10-07T12:33:20.870Z,1011.30
2018-10-07T12:34:20.845Z,1011.29
2018-10-07T12:35:20.817Z,1011.32
2018-10-07T12:36:20.793Z,1011.33
2018-10-07T12:37:20.762Z,1011.35
2018-10-07T12:38:20.736Z,1011.47
2018-10-07T12:39:20.708Z,1011.55
2018-10-07T12:40:20.685Z,1011.39
2018-10-07T12:41:20.654Z,1011.57
2018-10-07T12:42:20.627Z,1011.52
2018-10-07T12:43:20.600Z,1011.60
2018-10-07T12:44:20.572Z,1011.61
2018-10-07T12:45:20.543Z,1011.61
2018-10-07T12:46:20.516Z,1011.55
2018-10-07T12:47:20.490Z,1011.63
2018-10-07T12:48:20.498Z,1011.68
2018-10-07T12:49:20.434Z,1011.69
2018-10-07T12:50:20.411Z,1011.68
2018-10-07T12:51:20.379Z,1011.75
2018-10-07T12:52:20.349Z,1011.76
2018-10-07T12:53:20.320Z,1011.72
2018-10-07T12:54:21.164Z,1011.76
2018-10-07T12:55:20.265Z,1011.82
2018-10-07T12:56:20.236Z,1011.86
2018-10-07T12:57:20.207Z,1011.95
2018-10-07T12:58:20.179Z,1011.88
2018-10-07T12:59:20.152Z,1011.92
2018-10-07T13:00:20.122Z,1011.91
2018-10-07T13:01:20.093Z,1011.86
2018-10-07T13:02:20.066Z,1011.92
2018-10-07T13:03:20.038Z,1011.89
2018-10-07T13:04:20.010Z,1011.91
2018-10-07T13:05:19.983Z,1011.96
2018-10-07T13:06:19.960Z,1011.94
2018-10-07T13:07:19.926Z,1011.99
2018-10-07T13:08:19.896Z,1011.93
2018-10-07T13:09:19.869Z,1011.96